Tamworth, Canada
Current Conditions -  °F | °C
As of 11:00 PM on Thursday 18 Dec 2014 (Local Time) from CYGK Reporting Station
Overcast Overcast  
Wind Chill: 12°   Ceiling: 3500
Heat Index: 25°   Visibility: 15mi
Dew Point: 21°   Wind: 15mph
Humidity: 86%   Direction: 340°NNW
Pressure: 30.04"   Gusts: NA
Location:  44.47°N, 76.98°W
Report Text: CYGK 190400Z 34013KT 15SM FEW009 SCT013 OVC035 M04/M06 A3004 RMK SF1SC3SC4 LAST STFD OBS/NEXT 191100UTC SLP176
Loading
Personal Weather Stations






























Interactive Weather Map New forecast layout! Learn more

10-Day Weather Forecast

Advertisements
Track Severe Weather on mobile